createdAt,value
2019-03-16T00:02:14.837Z,9.00
2019-03-16T00:04:43.275Z,9.00
2019-03-16T00:07:11.749Z,9.10
2019-03-16T00:09:40.173Z,9.10
2019-03-16T00:12:08.658Z,9.10
2019-03-16T00:14:37.084Z,9.10
2019-03-16T00:17:05.507Z,9.10
2019-03-16T00:19:33.969Z,9.20
2019-03-16T00:22:02.404Z,9.20
2019-03-16T00:24:30.935Z,9.30
2019-03-16T00:26:59.352Z,9.20
2019-03-16T00:29:27.808Z,9.30
2019-03-16T00:31:56.245Z,9.20
2019-03-16T00:34:24.702Z,9.20
2019-03-16T00:36:53.128Z,9.30
2019-03-16T00:39:21.576Z,9.30
2019-03-16T00:41:50.008Z,9.30
2019-03-16T00:44:18.532Z,9.20
2019-03-16T00:46:47.050Z,9.20
2019-03-16T00:49:15.500Z,9.20
2019-03-16T00:51:43.951Z,9.20
2019-03-16T00:54:12.472Z,9.10
2019-03-16T00:56:40.887Z,9.10
2019-03-16T00:59:09.348Z,9.00
2019-03-16T01:01:37.850Z,9.00
2019-03-16T01:04:06.287Z,9.00
2019-03-16T01:06:34.765Z,8.90
2019-03-16T01:09:04.516Z,9.00
2019-03-16T01:11:32.967Z,8.90
2019-03-16T01:14:01.390Z,8.80
2019-03-16T01:16:29.844Z,8.80
2019-03-16T01:18:58.274Z,8.70
2019-03-16T01:21:26.771Z,8.60
2019-03-16T01:23:55.191Z,8.60
2019-03-16T01:26:23.654Z,8.60
2019-03-16T01:28:52.109Z,8.70
2019-03-16T01:31:20.581Z,8.60
2019-03-16T01:33:49.080Z,8.60
2019-03-16T01:36:17.604Z,8.60
2019-03-16T01:38:46.033Z,8.50
2019-03-16T01:41:14.578Z,8.60
2019-03-16T01:43:43.004Z,8.60
2019-03-16T01:46:11.483Z,8.50
2019-03-16T01:48:39.915Z,8.40
2019-03-16T01:51:08.350Z,8.40
2019-03-16T01:53:36.782Z,8.30
2019-03-16T01:56:05.207Z,8.30
2019-03-16T01:58:33.662Z,8.30
2019-03-16T02:01:02.087Z,8.30
2019-03-16T02:03:30.535Z,8.30
2019-03-16T02:05:58.978Z,8.20
2019-03-16T02:08:27.516Z,8.20
2019-03-16T02:10:56.016Z,8.20
2019-03-16T02:13:24.567Z,8.20
2019-03-16T02:15:53.018Z,8.20
2019-03-16T02:18:21.483Z,8.10
2019-03-16T02:20:49.901Z,8.10
2019-03-16T02:23:18.351Z,8.10
2019-03-16T02:25:46.795Z,8.20
2019-03-16T02:28:15.239Z,8.10
2019-03-16T02:30:43.667Z,8.10
2019-03-16T02:33:13.756Z,8.10
2019-03-16T02:35:42.268Z,8.10
2019-03-16T02:38:10.739Z,8.10
2019-03-16T02:40:39.151Z,8.10
2019-03-16T02:43:07.618Z,8.10
2019-03-16T02:45:36.102Z,8.20
2019-03-16T02:48:04.703Z,8.20
2019-03-16T02:50:33.118Z,8.10
2019-03-16T02:53:01.647Z,8.10
2019-03-16T02:55:30.138Z,8.10
2019-03-16T02:57:58.574Z,8.10
2019-03-16T03:00:27.060Z,8.10
2019-03-16T03:02:55.641Z,8.10
2019-03-16T03:05:24.180Z,8.10
2019-03-16T03:07:52.757Z,8.10
2019-03-16T03:10:21.204Z,8.10
2019-03-16T03:12:49.638Z,8.10
2019-03-16T03:15:18.095Z,8.10
2019-03-16T03:17:46.524Z,8.10
2019-03-16T03:20:15.122Z,8.10
2019-03-16T03:22:43.569Z,8.10
2019-03-16T03:25:12.159Z,8.10
2019-03-16T03:27:40.615Z,8.10
2019-03-16T03:30:13.448Z,8.10
2019-03-16T03:32:42.303Z,8.10
2019-03-16T03:35:11.287Z,8.10
2019-03-16T03:37:39.738Z,8.10
2019-03-16T03:40:12.347Z,8.10
2019-03-16T03:42:40.864Z,8.10
2019-03-16T03:45:11.203Z,8.10
2019-03-16T03:47:39.667Z,8.10
2019-03-16T03:50:12.540Z,8.10
2019-03-16T03:52:40.984Z,8.00
2019-03-16T03:55:11.158Z,8.10
2019-03-16T03:57:39.772Z,8.00
2019-03-16T04:00:20.682Z,8.00
2019-03-16T04:02:49.205Z,8.00
2019-03-16T04:05:17.616Z,8.00
2019-03-16T04:07:46.127Z,8.10
2019-03-16T04:10:14.709Z,8.00
2019-03-16T04:12:43.201Z,8.00
2019-03-16T04:15:12.889Z,8.00
2019-03-16T04:17:41.391Z,8.00
2019-03-16T04:20:14.434Z,8.10
2019-03-16T04:22:42.979Z,8.10
2019-03-16T04:25:11.460Z,8.10
2019-03-16T04:27:39.922Z,8.10
2019-03-16T04:30:12.447Z,8.10
2019-03-16T04:32:40.901Z,8.10
2019-03-16T04:35:09.399Z,8.10
2019-03-16T04:37:37.856Z,8.10
2019-03-16T04:40:10.797Z,8.10
2019-03-16T04:42:39.260Z,8.10
2019-03-16T04:45:09.719Z,8.10
2019-03-16T04:47:38.172Z,8.10
2019-03-16T04:50:09.157Z,8.10
2019-03-16T04:52:37.676Z,8.10
2019-03-16T04:55:07.640Z,8.10
2019-03-16T04:57:36.060Z,8.10
2019-03-16T05:00:10.220Z,8.20
2019-03-16T05:02:38.719Z,8.10
2019-03-16T05:05:07.246Z,8.20
2019-03-16T05:07:35.691Z,8.20
2019-03-16T05:10:07.394Z,8.20
2019-03-16T05:12:35.962Z,8.10
2019-03-16T05:15:06.477Z,8.10
2019-03-16T05:17:34.977Z,8.10
2019-03-16T05:20:04.269Z,8.20
2019-03-16T05:22:32.788Z,8.20
2019-03-16T05:25:01.254Z,8.20
2019-03-16T05:27:29.675Z,8.30
2019-03-16T05:29:58.209Z,8.20
2019-03-16T05:32:26.631Z,8.30
2019-03-16T05:34:56.768Z,8.30
2019-03-16T05:37:25.271Z,8.30
2019-03-16T05:39:53.768Z,8.30
2019-03-16T05:42:22.194Z,8.30
2019-03-16T05:44:50.653Z,8.30
2019-03-16T05:47:19.091Z,8.30
2019-03-16T05:49:47.509Z,8.30
2019-03-16T05:52:15.967Z,8.40
2019-03-16T05:54:44.387Z,8.40
2019-03-16T05:57:12.835Z,8.40
2019-03-16T05:59:41.262Z,8.40
2019-03-16T06:02:09.694Z,8.40
2019-03-16T06:04:38.119Z,8.40
2019-03-16T06:07:06.571Z,8.40
2019-03-16T06:09:34.988Z,8.40
2019-03-16T06:12:03.428Z,8.40
2019-03-16T06:14:31.855Z,8.40
2019-03-16T06:17:00.318Z,8.40
2019-03-16T06:19:28.739Z,8.40
2019-03-16T06:21:57.182Z,8.40
2019-03-16T06:24:28.043Z,8.40
2019-03-16T06:26:55.779Z,8.50
2019-03-16T06:29:24.190Z,8.50
2019-03-16T06:31:52.644Z,8.40
2019-03-16T06:34:21.077Z,8.50
2019-03-16T06:36:49.543Z,8.50
2019-03-16T06:39:18.036Z,8.50
2019-03-16T06:41:46.492Z,8.50
2019-03-16T06:44:14.927Z,8.50
2019-03-16T06:46:43.357Z,8.50
2019-03-16T06:49:11.794Z,8.50
2019-03-16T06:51:40.273Z,8.50
2019-03-16T06:54:08.720Z,8.50
2019-03-16T06:56:37.222Z,8.50
2019-03-16T06:59:05.742Z,8.50
2019-03-16T07:01:34.179Z,8.50
2019-03-16T07:04:02.616Z,8.60
2019-03-16T07:06:31.042Z,8.60
2019-03-16T07:08:59.478Z,8.60
2019-03-16T07:11:27.924Z,8.60
2019-03-16T07:13:56.367Z,8.70
2019-03-16T07:16:24.795Z,8.80
2019-03-16T07:18:58.682Z,8.90
2019-03-16T07:21:23.370Z,9.00
2019-03-16T07:23:51.812Z,9.10
2019-03-16T07:26:20.236Z,9.30
2019-03-16T07:28:48.674Z,9.50
2019-03-16T07:31:17.197Z,9.70
2019-03-16T07:33:45.655Z,9.90
2019-03-16T07:36:14.094Z,10.10
2019-03-16T07:38:42.515Z,10.20
2019-03-16T07:41:10.974Z,10.40
2019-03-16T07:43:39.426Z,10.50
2019-03-16T07:46:07.954Z,10.50
2019-03-16T07:48:36.388Z,10.60
2019-03-16T07:51:04.835Z,10.70
2019-03-16T07:53:33.267Z,10.80
2019-03-16T07:56:01.822Z,10.80
2019-03-16T07:58:30.222Z,10.80
2019-03-16T08:00:58.673Z,10.60
2019-03-16T08:03:27.091Z,10.50
2019-03-16T08:05:55.604Z,10.50
2019-03-16T08:08:24.125Z,10.60
2019-03-16T08:10:52.708Z,10.70
2019-03-16T08:13:21.143Z,10.80
2019-03-16T08:15:49.587Z,10.70
2019-03-16T08:18:18.020Z,10.70
2019-03-16T08:20:46.443Z,10.70
2019-03-16T08:23:14.892Z,10.60
2019-03-16T08:25:43.411Z,10.60
2019-03-16T08:28:11.946Z,10.60
2019-03-16T08:30:40.399Z,10.50
2019-03-16T08:33:08.843Z,10.50
2019-03-16T08:35:37.393Z,10.40
2019-03-16T08:38:05.913Z,10.40
2019-03-16T08:40:34.344Z,10.30
2019-03-16T08:43:02.846Z,10.40
2019-03-16T08:45:31.266Z,10.40
2019-03-16T08:48:02.409Z,10.40
2019-03-16T08:50:29.950Z,10.30
2019-03-16T08:52:58.415Z,10.30
2019-03-16T08:55:26.844Z,10.30
2019-03-16T08:58:05.525Z,10.30
2019-03-16T09:00:25.457Z,10.30
2019-03-16T09:02:53.921Z,10.20
2019-03-16T09:05:22.354Z,10.30
2019-03-16T09:07:50.804Z,10.30
2019-03-16T09:10:19.237Z,10.40
2019-03-16T09:12:55.031Z,10.40
2019-03-16T09:15:17.876Z,10.50
2019-03-16T09:17:46.336Z,10.50
2019-03-16T09:20:14.796Z,10.50
2019-03-16T09:22:43.227Z,10.50
2019-03-16T09:25:11.815Z,10.50
2019-03-16T09:27:40.255Z,10.60
2019-03-16T09:30:13.673Z,10.60
2019-03-16T09:32:42.108Z,10.60
2019-03-16T09:35:10.762Z,10.60
2019-03-16T09:37:39.202Z,10.60
2019-03-16T09:40:09.799Z,10.60
2019-03-16T09:42:38.230Z,11.00
2019-03-16T09:45:09.824Z,11.10
2019-03-16T09:47:38.238Z,11.20
2019-03-16T09:50:08.741Z,11.30
2019-03-16T09:52:37.183Z,11.50
2019-03-16T09:55:10.269Z,11.70
2019-03-16T09:57:38.824Z,12.00
2019-03-16T10:00:15.247Z,12.10
2019-03-16T10:02:43.684Z,12.10
2019-03-16T10:05:12.259Z,12.10
2019-03-16T10:07:40.788Z,12.30
2019-03-16T10:10:16.159Z,12.30
2019-03-16T10:12:44.607Z,12.30
2019-03-16T10:15:14.095Z,12.30
2019-03-16T10:17:42.548Z,12.10
2019-03-16T10:20:14.685Z,11.90
2019-03-16T10:22:43.235Z,11.90
2019-03-16T10:25:11.842Z,12.00
2019-03-16T10:27:40.435Z,12.10
2019-03-16T10:30:14.170Z,12.20
2019-03-16T10:32:42.777Z,12.20
2019-03-16T10:35:11.452Z,12.20
2019-03-16T10:37:39.915Z,12.20
2019-03-16T10:40:10.807Z,12.00
2019-03-16T10:42:39.250Z,11.80
2019-03-16T10:45:09.815Z,11.60
2019-03-16T10:47:38.271Z,11.50
2019-03-16T10:50:12.371Z,11.50
2019-03-16T10:52:40.905Z,11.60
2019-03-16T10:55:09.715Z,11.90
2019-03-16T10:57:38.203Z,12.10
2019-03-16T11:00:15.129Z,12.40
2019-03-16T11:02:43.743Z,12.70
2019-03-16T11:05:12.516Z,12.90
2019-03-16T11:07:40.960Z,13.10
2019-03-16T11:10:11.063Z,12.90
2019-03-16T11:12:39.487Z,12.80
2019-03-16T11:15:12.007Z,13.10
2019-03-16T11:17:40.500Z,13.40
2019-03-16T11:20:10.919Z,13.60
2019-03-16T11:22:39.366Z,13.80
2019-03-16T11:25:08.324Z,13.80
2019-03-16T11:27:36.761Z,13.90
2019-03-16T11:30:18.210Z,13.70
2019-03-16T11:32:46.645Z,13.80
2019-03-16T11:35:15.257Z,14.00
2019-03-16T11:37:43.686Z,14.10
2019-03-16T11:40:17.171Z,13.90
2019-03-16T11:42:45.659Z,13.60
2019-03-16T11:45:17.059Z,13.20
2019-03-16T11:47:44.854Z,13.00
2019-03-16T11:50:13.609Z,12.70
2019-03-16T11:52:42.041Z,12.70
2019-03-16T11:55:11.032Z,12.60
2019-03-16T11:57:39.446Z,12.60
2019-03-16T12:00:12.795Z,12.60
2019-03-16T12:02:41.312Z,12.60
2019-03-16T12:05:11.737Z,12.70
2019-03-16T12:07:40.235Z,12.70
2019-03-16T12:10:11.108Z,12.70
2019-03-16T12:12:39.536Z,12.60
2019-03-16T12:15:11.946Z,12.70
2019-03-16T12:17:40.462Z,12.60
2019-03-16T12:20:13.605Z,12.50
2019-03-16T12:22:42.031Z,12.50
2019-03-16T12:25:10.467Z,12.40
2019-03-16T12:27:39.016Z,12.30
2019-03-16T12:30:12.619Z,12.30
2019-03-16T12:32:41.127Z,12.50
2019-03-16T12:35:09.821Z,12.70
2019-03-16T12:37:38.272Z,12.70
2019-03-16T12:40:13.678Z,12.80
2019-03-16T12:42:42.130Z,12.60
2019-03-16T12:45:15.844Z,12.60
2019-03-16T12:47:44.303Z,12.60
2019-03-16T12:50:13.373Z,12.50
2019-03-16T12:52:41.913Z,12.40
2019-03-16T12:55:11.496Z,12.40
2019-03-16T12:57:40.001Z,12.30
2019-03-16T13:00:15.732Z,12.30
2019-03-16T13:02:44.243Z,12.10
2019-03-16T13:05:12.810Z,12.10
2019-03-16T13:07:41.254Z,12.20
2019-03-16T13:10:17.755Z,12.10
2019-03-16T13:12:46.291Z,12.00
2019-03-16T13:15:14.805Z,12.00
2019-03-16T13:17:43.254Z,12.00
2019-03-16T13:20:15.871Z,12.00
2019-03-16T13:22:44.415Z,12.10
2019-03-16T13:25:13.061Z,12.10
2019-03-16T13:27:41.657Z,12.10
2019-03-16T13:30:15.121Z,12.10
2019-03-16T13:32:43.578Z,12.10
2019-03-16T13:35:12.263Z,12.10
2019-03-16T13:37:40.839Z,12.20
2019-03-16T13:40:14.267Z,12.20
2019-03-16T13:42:42.867Z,12.30
2019-03-16T13:45:11.468Z,12.40
2019-03-16T13:47:39.888Z,12.40
2019-03-16T13:50:17.306Z,12.40
2019-03-16T13:52:46.117Z,12.30
2019-03-16T13:55:14.639Z,12.30
2019-03-16T13:57:43.075Z,12.30
2019-03-16T14:00:16.856Z,12.20
2019-03-16T14:02:46.051Z,12.20
2019-03-16T14:05:14.642Z,12.10
2019-03-16T14:07:43.696Z,12.10
2019-03-16T14:10:24.559Z,12.20
2019-03-16T14:12:52.983Z,12.20
2019-03-16T14:15:21.444Z,12.10
2019-03-16T14:17:49.854Z,12.00
2019-03-16T14:20:18.688Z,12.00
2019-03-16T14:22:47.131Z,12.20
2019-03-16T14:25:15.600Z,12.40
2019-03-16T14:27:44.027Z,12.50
2019-03-16T14:30:29.504Z,12.60
2019-03-16T14:32:47.620Z,12.70
2019-03-16T14:35:16.063Z,12.60
2019-03-16T14:37:44.577Z,12.50
2019-03-16T14:40:14.085Z,12.40
2019-03-16T14:42:42.678Z,12.20
2019-03-16T14:45:13.236Z,12.00
2019-03-16T14:47:41.854Z,12.00
2019-03-16T14:50:16.762Z,12.00
2019-03-16T14:52:46.150Z,12.10
2019-03-16T14:55:14.944Z,12.10
2019-03-16T14:57:43.544Z,12.20
2019-03-16T15:00:14.711Z,12.30
2019-03-16T15:02:45.867Z,12.30
2019-03-16T15:05:13.547Z,12.40
2019-03-16T15:07:42.120Z,12.30
2019-03-16T15:10:15.512Z,12.30
2019-03-16T15:12:44.032Z,12.30
2019-03-16T15:15:14.312Z,12.50
2019-03-16T15:17:42.975Z,12.60
2019-03-16T15:20:12.135Z,12.60
2019-03-16T15:22:40.603Z,12.70
2019-03-16T15:25:11.408Z,12.90
2019-03-16T15:27:39.986Z,13.00
2019-03-16T15:30:14.087Z,12.90
2019-03-16T15:32:42.570Z,12.80
2019-03-16T15:35:11.154Z,12.90
2019-03-16T15:37:39.602Z,12.90
2019-03-16T15:40:10.484Z,12.90
2019-03-16T15:42:38.977Z,12.90
2019-03-16T15:45:13.344Z,12.80
2019-03-16T15:47:42.011Z,12.80
2019-03-16T15:50:10.611Z,12.70
2019-03-16T15:52:39.123Z,12.60
2019-03-16T15:55:08.183Z,12.70
2019-03-16T15:57:36.635Z,12.60
2019-03-16T16:00:13.706Z,12.60
2019-03-16T16:02:42.235Z,12.60
2019-03-16T16:05:10.909Z,12.60
2019-03-16T16:07:39.425Z,12.60
2019-03-16T16:10:12.382Z,12.60
2019-03-16T16:12:41.093Z,12.60
2019-03-16T16:15:11.115Z,12.50
2019-03-16T16:17:39.911Z,12.40
2019-03-16T16:20:13.946Z,12.30
2019-03-16T16:22:42.452Z,12.20
2019-03-16T16:25:12.027Z,12.20
2019-03-16T16:27:40.442Z,12.20
2019-03-16T16:30:21.106Z,12.20
2019-03-16T16:32:49.635Z,12.10
2019-03-16T16:35:18.329Z,12.10
2019-03-16T16:37:46.758Z,12.10
2019-03-16T16:40:17.618Z,12.00
2019-03-16T16:42:46.063Z,12.00
2019-03-16T16:45:15.454Z,12.00
2019-03-16T16:47:43.940Z,12.00
2019-03-16T16:50:17.423Z,12.00
2019-03-16T16:52:45.846Z,12.00
2019-03-16T16:55:14.374Z,12.00
2019-03-16T16:57:42.971Z,12.00
2019-03-16T17:00:17.204Z,12.00
2019-03-16T17:02:45.782Z,11.90
2019-03-16T17:05:14.470Z,11.90
2019-03-16T17:07:42.915Z,11.90
2019-03-16T17:10:13.615Z,11.90
2019-03-16T17:12:42.163Z,11.90
2019-03-16T17:15:15.873Z,11.80
2019-03-16T17:17:44.370Z,11.80
2019-03-16T17:20:14.743Z,11.80
2019-03-16T17:22:43.417Z,11.70
2019-03-16T17:25:13.230Z,11.60
2019-03-16T17:27:41.688Z,11.60
2019-03-16T17:30:21.460Z,11.60
2019-03-16T17:32:49.929Z,11.50
2019-03-16T17:35:18.441Z,11.50
2019-03-16T17:37:46.941Z,11.50
2019-03-16T17:40:16.167Z,11.40
2019-03-16T17:42:44.660Z,11.40
2019-03-16T17:45:14.805Z,11.40
2019-03-16T17:47:43.519Z,11.30
2019-03-16T17:50:14.456Z,11.30
2019-03-16T17:52:43.068Z,11.30
2019-03-16T17:55:14.649Z,11.30
2019-03-16T17:57:45.327Z,11.30
2019-03-16T18:00:15.533Z,11.30
2019-03-16T18:02:51.109Z,11.20
2019-03-16T18:05:14.342Z,11.20
2019-03-16T18:07:42.794Z,11.10
2019-03-16T18:10:12.964Z,11.10
2019-03-16T18:12:41.464Z,11.10
2019-03-16T18:15:19.916Z,11.10
2019-03-16T18:17:48.772Z,11.10
2019-03-16T18:20:23.309Z,11.00
2019-03-16T18:22:53.100Z,11.00
2019-03-16T18:25:21.722Z,11.00
2019-03-16T18:27:52.093Z,11.00
2019-03-16T18:30:24.396Z,11.00
2019-03-16T18:32:52.920Z,11.00
2019-03-16T18:35:21.555Z,11.00
2019-03-16T18:37:50.143Z,11.00
2019-03-16T18:40:18.811Z,11.00
2019-03-16T18:42:47.571Z,11.00
2019-03-16T18:45:25.036Z,11.00
2019-03-16T18:47:53.487Z,11.00
2019-03-16T18:50:21.914Z,10.90
2019-03-16T18:52:50.379Z,10.80
2019-03-16T18:55:18.971Z,10.80
2019-03-16T18:57:47.389Z,10.70
2019-03-16T19:00:16.784Z,10.70
2019-03-16T19:02:45.296Z,10.60
2019-03-16T19:05:14.115Z,10.50
2019-03-16T19:07:42.767Z,10.40
2019-03-16T19:10:15.464Z,10.30
2019-03-16T19:12:44.214Z,10.20
2019-03-16T19:15:17.175Z,10.10
2019-03-16T19:17:58.233Z,10.10
2019-03-16T19:20:17.020Z,10.00
2019-03-16T19:22:45.668Z,9.90
2019-03-16T19:25:19.443Z,9.90
2019-03-16T19:27:48.037Z,9.80
2019-03-16T19:30:17.584Z,9.70
2019-03-16T19:32:46.603Z,9.70
2019-03-16T19:35:15.400Z,9.60
2019-03-16T19:37:43.812Z,9.60
2019-03-16T19:40:18.927Z,9.50
2019-03-16T19:42:47.518Z,9.50
2019-03-16T19:45:16.175Z,9.50
2019-03-16T19:47:44.617Z,9.50
2019-03-16T19:50:15.176Z,9.30
2019-03-16T19:52:43.627Z,9.20
2019-03-16T19:55:13.213Z,9.10
2019-03-16T19:57:41.792Z,9.10
2019-03-16T20:00:16.089Z,9.10
2019-03-16T20:02:50.000Z,9.00
2019-03-16T20:05:15.256Z,9.00
2019-03-16T20:07:43.738Z,9.00
2019-03-16T20:10:17.165Z,9.00
2019-03-16T20:12:45.804Z,8.90
2019-03-16T20:15:15.772Z,8.90
2019-03-16T20:17:44.502Z,8.90
2019-03-16T20:20:17.623Z,8.80
2019-03-16T20:22:46.349Z,8.80
2019-03-16T20:25:14.923Z,8.80
2019-03-16T20:27:43.428Z,8.80
2019-03-16T20:30:15.975Z,8.70
2019-03-16T20:32:44.400Z,8.70
2019-03-16T20:35:13.185Z,8.70
2019-03-16T20:37:41.758Z,8.60
2019-03-16T20:40:17.086Z,8.70
2019-03-16T20:42:46.496Z,8.60
2019-03-16T20:45:15.738Z,8.60
2019-03-16T20:47:44.455Z,8.60
2019-03-16T20:50:14.495Z,8.50
2019-03-16T20:52:43.126Z,8.50
2019-03-16T20:55:11.707Z,8.40
2019-03-16T20:57:40.224Z,8.30
2019-03-16T21:00:16.740Z,8.20
2019-03-16T21:02:45.243Z,8.20
2019-03-16T21:05:14.091Z,8.20
2019-03-16T21:07:42.573Z,8.20
2019-03-16T21:10:12.422Z,8.20
2019-03-16T21:12:41.013Z,8.20
2019-03-16T21:15:19.130Z,8.10
2019-03-16T21:17:47.650Z,8.10
2019-03-16T21:20:17.261Z,8.10
2019-03-16T21:22:45.922Z,8.10
2019-03-16T21:25:15.588Z,8.20
2019-03-16T21:27:44.529Z,8.10
2019-03-16T21:30:15.811Z,8.10
2019-03-16T21:32:44.399Z,8.00
2019-03-16T21:35:13.001Z,8.00
2019-03-16T21:37:41.451Z,8.00
2019-03-16T21:40:14.345Z,7.90
2019-03-16T21:42:42.843Z,7.80
2019-03-16T21:45:13.214Z,4.60
2019-03-16T21:47:41.739Z,7.90
2019-03-16T21:50:14.552Z,7.90
2019-03-16T21:52:44.591Z,7.90
2019-03-16T21:55:14.136Z,7.90
2019-03-16T21:57:42.643Z,8.10
2019-03-16T22:00:14.247Z,8.30
2019-03-16T22:02:42.989Z,8.30
2019-03-16T22:05:11.538Z,8.40
2019-03-16T22:07:40.073Z,8.40
2019-03-16T22:10:13.774Z,8.60
2019-03-16T22:12:42.289Z,8.70
2019-03-16T22:15:13.242Z,8.80
2019-03-16T22:17:41.849Z,8.90
2019-03-16T22:20:18.808Z,9.00
2019-03-16T22:22:48.129Z,9.10
2019-03-16T22:25:16.779Z,9.30
2019-03-16T22:27:45.314Z,9.40
2019-03-16T22:30:17.542Z,9.50
2019-03-16T22:32:46.176Z,9.50
2019-03-16T22:35:14.676Z,9.70
2019-03-16T22:37:43.156Z,9.70
2019-03-16T22:40:15.142Z,9.70
2019-03-16T22:42:44.043Z,9.80
2019-03-16T22:45:13.528Z,9.90
2019-03-16T22:47:41.992Z,10.00
2019-03-16T22:50:15.441Z,10.00
2019-03-16T22:52:43.885Z,10.00
2019-03-16T22:55:12.359Z,10.00
2019-03-16T22:57:40.786Z,10.10
2019-03-16T23:00:15.756Z,10.10
2019-03-16T23:02:44.296Z,10.10
2019-03-16T23:05:12.923Z,10.20
2019-03-16T23:07:41.432Z,10.20
2019-03-16T23:10:12.008Z,10.10
2019-03-16T23:12:40.520Z,10.10
2019-03-16T23:15:10.581Z,10.10
2019-03-16T23:17:39.029Z,10.10
2019-03-16T23:20:08.782Z,10.20
2019-03-16T23:22:37.300Z,10.20
2019-03-16T23:25:08.219Z,10.20
2019-03-16T23:27:36.641Z,10.20
2019-03-16T23:30:09.524Z,10.20
2019-03-16T23:32:37.972Z,10.20
2019-03-16T23:35:08.062Z,10.20
2019-03-16T23:37:36.495Z,10.20
2019-03-16T23:40:08.015Z,10.20
2019-03-16T23:42:36.440Z,10.20
2019-03-16T23:45:07.213Z,10.20
2019-03-16T23:47:35.702Z,10.10
2019-03-16T23:50:05.803Z,10.10
2019-03-16T23:52:36.892Z,10.20
2019-03-16T23:55:06.318Z,10.20
2019-03-16T23:57:34.741Z,10.20
